createdAt,value
2023-01-18T00:02:16.065Z,13.87
2023-01-18T00:04:43.675Z,13.97
2023-01-18T00:07:11.661Z,13.60
2023-01-18T00:09:39.171Z,14.43
2023-01-18T00:12:06.837Z,14.93
2023-01-18T00:14:34.795Z,15.70
2023-01-18T00:17:02.283Z,14.33
2023-01-18T00:19:31.239Z,14.83
2023-01-18T00:21:58.637Z,15.27
2023-01-18T00:24:27.699Z,15.27
2023-01-18T00:26:55.194Z,15.53
2023-01-18T00:29:23.072Z,14.90
2023-01-18T00:31:50.615Z,15.40
2023-01-18T00:34:18.225Z,15.07
2023-01-18T00:36:49.224Z,16.67
2023-01-18T00:39:17.101Z,16.93
2023-01-18T00:42:04.627Z,16.80
2023-01-18T00:44:31.920Z,16.47
2023-01-18T00:46:59.459Z,17.20
2023-01-18T00:49:26.939Z,16.77
2023-01-18T00:51:58.620Z,17.87
2023-01-18T00:54:26.209Z,17.40
2023-01-18T00:56:53.679Z,17.70
2023-01-18T00:59:21.127Z,18.00
2023-01-18T01:01:48.810Z,16.97
2023-01-18T01:04:30.473Z,15.33
2023-01-18T01:06:59.305Z,16.73
2023-01-18T01:09:28.007Z,16.30
2023-01-18T01:12:13.051Z,15.60
2023-01-18T01:15:01.377Z,16.03
2023-01-18T01:17:47.009Z,15.10
2023-01-18T01:20:32.032Z,15.00
2023-01-18T01:23:26.248Z,16.00
2023-01-18T01:26:07.740Z,14.77
2023-01-18T01:28:35.601Z,13.27
2023-01-18T01:31:04.103Z,14.87
2023-01-18T01:33:32.105Z,15.67
2023-01-18T01:36:00.024Z,14.70
2023-01-18T01:38:29.275Z,13.90
2023-01-18T01:40:57.238Z,15.27
2023-01-18T01:43:37.975Z,13.40
2023-01-18T01:46:05.884Z,14.27
2023-01-18T01:48:33.282Z,14.93
2023-01-18T01:51:00.783Z,14.53
2023-01-18T01:53:29.644Z,14.60
2023-01-18T01:55:57.151Z,14.73
2023-01-18T01:58:28.001Z,14.70
2023-01-18T02:00:55.623Z,14.80
2023-01-18T02:03:23.544Z,14.57
2023-01-18T02:05:53.354Z,15.77
2023-01-18T02:08:23.255Z,14.83
2023-01-18T02:10:52.263Z,14.87
2023-01-18T02:13:20.572Z,14.03
2023-01-18T02:15:51.524Z,14.47
2023-01-18T02:18:23.227Z,14.23
2023-01-18T02:21:17.623Z,14.87
2023-01-18T02:23:57.755Z,13.73
2023-01-18T02:26:40.035Z,15.60
2023-01-18T02:29:13.496Z,15.00
2023-01-18T02:31:44.637Z,15.77
2023-01-18T02:34:16.496Z,15.07
2023-01-18T02:36:46.681Z,16.23
2023-01-18T02:39:23.399Z,15.53
2023-01-18T02:42:12.336Z,16.10
2023-01-18T02:45:00.572Z,16.33
2023-01-18T02:47:28.580Z,15.97
2023-01-18T02:49:56.999Z,16.40
2023-01-18T02:52:38.872Z,16.87
2023-01-18T02:55:07.736Z,16.93
2023-01-18T02:57:35.339Z,16.63
2023-01-18T03:00:05.129Z,16.00
2023-01-18T03:02:32.605Z,14.27
2023-01-18T03:05:00.213Z,13.57
2023-01-18T03:07:29.988Z,13.37
2023-01-18T03:09:58.584Z,14.93
2023-01-18T03:12:28.183Z,14.17
2023-01-18T03:14:58.462Z,15.43
2023-01-18T03:17:30.136Z,15.60
2023-01-18T03:20:08.533Z,15.17
2023-01-18T03:22:55.074Z,14.23
2023-01-18T03:25:25.482Z,13.73
2023-01-18T03:28:12.211Z,14.00
2023-01-18T03:30:58.664Z,14.43
2023-01-18T03:33:46.586Z,14.53
2023-01-18T03:36:18.043Z,14.27
2023-01-18T03:38:47.173Z,14.57
2023-01-18T03:41:15.239Z,16.37
2023-01-18T03:43:43.540Z,13.80
2023-01-18T03:46:11.014Z,14.17
2023-01-18T03:48:39.831Z,13.90
2023-01-18T03:51:12.685Z,13.50
2023-01-18T03:53:42.220Z,14.13
2023-01-18T03:56:11.638Z,14.87
2023-01-18T03:58:39.637Z,13.70
2023-01-18T04:01:07.428Z,14.90
2023-01-18T04:03:35.325Z,15.67
2023-01-18T04:06:05.592Z,15.23
2023-01-18T04:08:33.141Z,15.73
2023-01-18T04:11:00.583Z,16.07
2023-01-18T04:13:27.993Z,15.17
2023-01-18T04:15:55.529Z,15.63
2023-01-18T04:18:25.167Z,15.93
2023-01-18T04:20:56.348Z,16.60
2023-01-18T04:23:25.403Z,14.90
2023-01-18T04:25:58.054Z,14.63
2023-01-18T04:28:26.253Z,15.17
2023-01-18T04:30:56.839Z,14.63
2023-01-18T04:33:26.771Z,15.47
2023-01-18T04:35:54.741Z,15.87
2023-01-18T04:38:22.561Z,15.93
2023-01-18T04:40:51.479Z,15.20
2023-01-18T04:43:19.022Z,15.93
2023-01-18T04:45:53.148Z,15.43
2023-01-18T04:48:20.616Z,16.23
2023-01-18T04:50:48.500Z,16.83
2023-01-18T04:53:15.972Z,16.83
2023-01-18T04:55:43.411Z,17.90
2023-01-18T04:58:12.235Z,17.80
2023-01-18T05:00:40.556Z,17.30
2023-01-18T05:03:08.252Z,17.00
2023-01-18T05:05:36.015Z,17.60
2023-01-18T05:08:03.870Z,18.60
2023-01-18T05:10:31.354Z,18.13
2023-01-18T05:12:59.196Z,17.67
2023-01-18T05:15:28.438Z,18.00
2023-01-18T05:17:55.912Z,17.90
2023-01-18T05:20:23.648Z,18.10
2023-01-18T05:22:51.115Z,18.07
2023-01-18T05:25:18.655Z,18.10
2023-01-18T05:27:46.340Z,17.33
2023-01-18T05:30:14.001Z,17.57
2023-01-18T05:32:42.802Z,16.47
2023-01-18T05:35:10.796Z,15.73
2023-01-18T05:37:38.375Z,15.57
2023-01-18T05:40:06.496Z,15.10
2023-01-18T05:42:34.024Z,15.20
2023-01-18T05:45:01.476Z,16.00
2023-01-18T05:47:28.972Z,15.93
2023-01-18T05:49:58.163Z,14.50
2023-01-18T05:52:25.612Z,15.17
2023-01-18T05:54:53.085Z,14.80
2023-01-18T05:57:20.575Z,14.10
2023-01-18T05:59:51.200Z,13.80
2023-01-18T06:02:19.009Z,15.27
2023-01-18T06:04:47.628Z,13.83
2023-01-18T06:07:19.134Z,15.93
2023-01-18T06:09:46.632Z,12.87
2023-01-18T06:12:14.144Z,14.00
2023-01-18T06:14:41.744Z,14.00
2023-01-18T06:17:09.647Z,13.10
2023-01-18T06:19:37.351Z,12.00
2023-01-18T06:22:04.933Z,11.77
2023-01-18T06:24:33.779Z,9.83
2023-01-18T06:27:04.167Z,8.50
2023-01-18T06:29:31.644Z,9.27
2023-01-18T06:32:02.054Z,8.90
2023-01-18T06:34:30.418Z,9.07
2023-01-18T06:36:57.938Z,9.47
2023-01-18T06:39:25.560Z,9.87
2023-01-18T06:41:55.249Z,9.23
2023-01-18T06:44:25.926Z,9.33
2023-01-18T06:47:01.456Z,9.30
2023-01-18T06:49:29.172Z,9.37
2023-01-18T06:51:56.851Z,10.27
2023-01-18T06:54:24.564Z,9.10
2023-01-18T06:56:52.357Z,10.10
2023-01-18T06:59:29.711Z,9.70
2023-01-18T07:01:57.274Z,10.50
2023-01-18T07:04:27.458Z,10.53
2023-01-18T07:07:02.336Z,10.47
2023-01-18T07:09:29.943Z,9.67
2023-01-18T07:11:57.502Z,10.30
2023-01-18T07:14:26.592Z,11.23
2023-01-18T07:16:54.537Z,10.80
2023-01-18T07:19:22.196Z,10.90
2023-01-18T07:21:50.185Z,11.13
2023-01-18T07:24:18.243Z,11.40
2023-01-18T07:26:45.838Z,11.90
2023-01-18T07:29:13.417Z,9.80
2023-01-18T07:31:42.327Z,10.13
2023-01-18T07:34:10.111Z,12.30
2023-01-18T07:36:39.161Z,10.23
2023-01-18T07:39:06.941Z,10.40
2023-01-18T07:41:34.448Z,9.77
2023-01-18T07:44:04.133Z,9.77
2023-01-18T07:46:32.136Z,10.40
2023-01-18T07:49:28.625Z,10.23
2023-01-18T07:51:57.503Z,9.87
2023-01-18T07:54:26.110Z,10.17
2023-01-18T07:56:54.320Z,9.27
2023-01-18T07:59:21.999Z,9.50
2023-01-18T08:01:49.579Z,9.07
2023-01-18T08:04:17.132Z,8.93
2023-01-18T08:06:44.521Z,9.13
2023-01-18T08:09:13.593Z,10.37
2023-01-18T08:11:41.027Z,10.07
2023-01-18T08:14:08.510Z,10.77
2023-01-18T08:16:36.001Z,12.17
2023-01-18T08:19:03.626Z,12.40
2023-01-18T08:21:33.781Z,11.10
2023-01-18T08:24:01.457Z,12.53
2023-01-18T08:26:30.400Z,13.53
2023-01-18T08:28:58.650Z,14.63
2023-01-18T08:31:26.196Z,16.90
2023-01-18T08:33:53.995Z,16.87
2023-01-18T08:36:22.235Z,16.83
2023-01-18T08:38:50.583Z,16.90
2023-01-18T08:41:18.222Z,16.83
2023-01-18T08:43:50.586Z,15.97
2023-01-18T08:46:18.298Z,17.20
2023-01-18T08:48:45.838Z,16.83
2023-01-18T08:51:13.255Z,18.37
2023-01-18T08:53:40.881Z,18.00
2023-01-18T08:56:08.995Z,18.17
2023-01-18T08:58:36.814Z,17.67
2023-01-18T09:01:07.367Z,18.37
2023-01-18T09:03:35.200Z,17.93
2023-01-18T09:06:02.854Z,17.70
2023-01-18T09:08:31.586Z,16.73
2023-01-18T09:11:01.736Z,17.30
2023-01-18T09:13:29.211Z,17.90
2023-01-18T09:15:59.375Z,16.30
2023-01-18T09:18:28.249Z,16.30
2023-01-18T09:20:55.678Z,16.03
2023-01-18T09:23:23.521Z,14.53
2023-01-18T09:26:01.283Z,14.57
2023-01-18T09:28:28.777Z,15.00
2023-01-18T09:31:00.079Z,14.20
2023-01-18T09:33:37.483Z,14.97
2023-01-18T09:36:07.628Z,14.57
2023-01-18T09:38:36.456Z,14.50
2023-01-18T09:41:06.177Z,12.47
2023-01-18T09:43:39.008Z,12.13
2023-01-18T09:46:06.811Z,11.37
2023-01-18T09:48:38.046Z,12.37
2023-01-18T09:51:08.114Z,13.47
2023-01-18T09:53:50.474Z,13.03
2023-01-18T09:56:20.429Z,12.60
2023-01-18T09:58:52.629Z,12.97
2023-01-18T10:01:22.316Z,12.97
2023-01-18T10:03:54.726Z,12.43
2023-01-18T10:06:24.950Z,13.57
2023-01-18T10:08:54.561Z,13.93
2023-01-18T10:11:27.090Z,13.33
2023-01-18T10:13:58.452Z,14.87
2023-01-18T10:16:26.527Z,12.23
2023-01-18T10:18:58.609Z,13.07
2023-01-18T10:21:30.827Z,13.53
2023-01-18T10:24:06.382Z,13.67
2023-01-18T10:26:36.280Z,13.43
2023-01-18T10:29:06.941Z,12.90
2023-01-18T10:31:39.823Z,12.57
2023-01-18T10:34:13.814Z,13.40
2023-01-18T10:36:43.775Z,12.47
2023-01-18T10:39:22.997Z,10.50
2023-01-18T10:41:51.777Z,11.40
2023-01-18T10:44:19.307Z,11.87
2023-01-18T10:46:46.839Z,11.00
2023-01-18T10:49:29.261Z,10.53
2023-01-18T10:51:58.124Z,10.40
2023-01-18T10:54:27.508Z,9.90
2023-01-18T10:57:02.316Z,11.47
2023-01-18T10:59:34.814Z,10.87
2023-01-18T11:02:02.479Z,11.43
2023-01-18T11:04:30.880Z,11.17
2023-01-18T11:07:03.727Z,11.30
2023-01-18T11:09:40.711Z,11.93
2023-01-18T11:12:38.042Z,11.53
2023-01-18T11:15:23.788Z,13.27
2023-01-18T11:18:01.273Z,12.33
2023-01-18T11:20:33.948Z,13.57
2023-01-18T11:23:04.335Z,13.57
2023-01-18T11:25:37.602Z,13.87
2023-01-18T11:28:07.379Z,11.80
2023-01-18T11:30:35.360Z,11.63
2023-01-18T11:33:02.899Z,11.03
2023-01-18T11:35:33.382Z,11.03
2023-01-18T11:38:01.913Z,11.90
2023-01-18T11:40:32.226Z,10.77
2023-01-18T11:43:03.654Z,10.43
2023-01-18T11:45:32.020Z,10.80
2023-01-18T11:48:02.665Z,11.10
2023-01-18T11:50:32.190Z,10.57
2023-01-18T11:53:03.348Z,10.23
2023-01-18T11:55:34.653Z,10.63
2023-01-18T11:58:02.528Z,10.40
2023-01-18T12:00:32.599Z,11.00
2023-01-18T12:03:30.260Z,10.43
2023-01-18T12:06:03.838Z,10.47
2023-01-18T12:08:44.887Z,10.70
2023-01-18T12:11:33.613Z,10.43
2023-01-18T12:14:03.175Z,10.37
2023-01-18T12:16:41.432Z,11.17
2023-01-18T12:19:24.655Z,10.20
2023-01-18T12:22:02.513Z,9.73
2023-01-18T12:24:35.866Z,10.33
2023-01-18T12:27:08.261Z,10.03
2023-01-18T12:30:03.496Z,10.47
2023-01-18T12:32:38.874Z,9.27
2023-01-18T12:35:24.012Z,8.80
2023-01-18T12:37:57.148Z,9.73
2023-01-18T12:40:31.574Z,10.13
2023-01-18T12:43:06.179Z,10.10
2023-01-18T12:45:36.429Z,9.73
2023-01-18T12:48:09.693Z,10.00
2023-01-18T12:50:37.828Z,9.60
2023-01-18T12:53:07.243Z,9.90
2023-01-18T12:55:36.126Z,9.13
2023-01-18T12:58:05.172Z,9.23
2023-01-18T13:00:35.349Z,10.37
2023-01-18T13:03:05.592Z,8.53
2023-01-18T13:05:36.969Z,9.57
2023-01-18T13:08:09.106Z,9.80
2023-01-18T13:10:37.431Z,8.63
2023-01-18T13:13:06.957Z,8.20
2023-01-18T13:15:39.559Z,8.70
2023-01-18T13:18:09.710Z,9.00
2023-01-18T13:20:42.527Z,8.60
2023-01-18T13:23:14.799Z,8.87
2023-01-18T13:25:48.475Z,8.67
2023-01-18T13:28:19.764Z,8.77
2023-01-18T13:30:52.661Z,8.27
2023-01-18T13:33:22.414Z,8.43
2023-01-18T13:35:51.128Z,8.77
2023-01-18T13:38:27.498Z,8.20
2023-01-18T13:41:02.643Z,8.50
2023-01-18T13:43:33.860Z,8.20
2023-01-18T13:46:02.595Z,8.00
2023-01-18T13:48:55.389Z,8.97
2023-01-18T13:51:41.916Z,9.57
2023-01-18T13:54:11.497Z,8.73
2023-01-18T13:56:39.306Z,9.23
2023-01-18T13:59:18.511Z,7.83
2023-01-18T14:01:48.688Z,7.57
2023-01-18T14:04:27.423Z,7.67
2023-01-18T14:06:56.035Z,7.63
2023-01-18T14:09:35.183Z,8.00
2023-01-18T14:12:02.974Z,8.20
2023-01-18T14:14:32.577Z,8.23
2023-01-18T14:17:02.065Z,10.47
2023-01-18T14:19:30.536Z,8.90
2023-01-18T14:22:16.658Z,8.17
2023-01-18T14:24:50.069Z,8.27
2023-01-18T14:27:19.363Z,8.20
2023-01-18T14:29:49.880Z,7.60
2023-01-18T14:32:23.060Z,8.60
2023-01-18T14:34:57.344Z,7.60
2023-01-18T14:37:27.088Z,7.37
2023-01-18T14:40:05.467Z,8.10
2023-01-18T14:42:34.897Z,7.47
2023-01-18T14:45:05.514Z,7.53
2023-01-18T14:47:34.774Z,7.00
2023-01-18T14:50:03.833Z,8.03
2023-01-18T14:52:33.294Z,7.57
2023-01-18T14:55:00.750Z,7.30
2023-01-18T14:57:28.191Z,7.43
2023-01-18T14:59:57.034Z,8.17
2023-01-18T15:02:27.745Z,8.93
2023-01-18T15:05:10.690Z,8.57
2023-01-18T15:07:39.201Z,7.73
2023-01-18T15:10:07.186Z,7.83
2023-01-18T15:12:35.016Z,7.67
2023-01-18T15:15:06.278Z,8.33
2023-01-18T15:17:37.059Z,14.60
2023-01-18T15:20:06.258Z,11.23
2023-01-18T15:22:35.905Z,9.50
2023-01-18T15:25:03.404Z,11.30
2023-01-18T15:27:32.616Z,9.50
2023-01-18T15:30:00.943Z,9.20
2023-01-18T15:32:30.008Z,9.10
2023-01-18T15:34:59.759Z,11.33
2023-01-18T15:37:28.279Z,11.27
2023-01-18T15:39:59.715Z,9.23
2023-01-18T15:42:28.387Z,8.77
2023-01-18T15:44:56.055Z,8.97
2023-01-18T15:47:26.372Z,8.87
2023-01-18T15:49:54.689Z,8.40
2023-01-18T15:52:37.398Z,8.57
2023-01-18T15:55:06.437Z,9.23
2023-01-18T15:57:37.213Z,8.77
2023-01-18T16:00:05.824Z,9.33
2023-01-18T16:02:33.522Z,10.07
2023-01-18T16:05:10.703Z,10.47
2023-01-18T16:07:41.894Z,10.27
2023-01-18T16:10:28.108Z,9.30
2023-01-18T16:12:56.866Z,9.43
2023-01-18T16:15:26.287Z,9.60
2023-01-18T16:17:56.164Z,9.70
2023-01-18T16:20:23.804Z,9.70
2023-01-18T16:22:55.002Z,9.80
2023-01-18T16:25:24.206Z,9.47
2023-01-18T16:27:52.862Z,12.40
2023-01-18T16:30:21.466Z,10.33
2023-01-18T16:32:49.474Z,10.20
2023-01-18T16:35:18.453Z,9.53
2023-01-18T16:37:47.199Z,9.53
2023-01-18T16:40:17.501Z,10.10
2023-01-18T16:43:02.632Z,9.67
2023-01-18T16:45:30.922Z,8.90
2023-01-18T16:47:58.719Z,7.87
2023-01-18T16:50:26.396Z,8.53
2023-01-18T16:52:53.904Z,8.50
2023-01-18T16:55:22.778Z,8.27
2023-01-18T16:57:51.725Z,7.87
2023-01-18T17:00:20.654Z,8.80
2023-01-18T17:02:48.292Z,9.00
2023-01-18T17:05:16.449Z,9.97
2023-01-18T17:07:43.992Z,8.63
2023-01-18T17:10:18.671Z,9.80
2023-01-18T17:12:47.574Z,9.67
2023-01-18T17:15:15.186Z,10.80
2023-01-18T17:17:43.296Z,11.43
2023-01-18T17:20:20.968Z,10.00
2023-01-18T17:22:48.564Z,10.07
2023-01-18T17:25:16.362Z,10.03
2023-01-18T17:27:44.004Z,9.70
2023-01-18T17:30:14.043Z,10.13
2023-01-18T17:32:41.530Z,10.47
2023-01-18T17:35:09.570Z,10.57
2023-01-18T17:40:22.560Z,9.90
2023-01-18T17:42:56.082Z,9.17
2023-01-18T17:45:24.918Z,8.93
2023-01-18T17:47:52.597Z,8.73
2023-01-18T17:50:24.768Z,8.87
2023-01-18T17:52:52.903Z,8.50
2023-01-18T17:55:24.493Z,8.63
2023-01-18T17:57:55.551Z,8.30
2023-01-18T18:00:23.563Z,9.77
2023-01-18T18:02:53.476Z,10.30
2023-01-18T18:05:21.088Z,10.80
2023-01-18T18:07:49.496Z,10.93
2023-01-18T18:10:17.320Z,10.60
2023-01-18T18:12:46.011Z,11.43
2023-01-18T18:15:13.757Z,11.20
2023-01-18T18:17:41.505Z,10.67
2023-01-18T18:20:11.331Z,10.47
2023-01-18T18:22:39.573Z,10.80
2023-01-18T18:25:07.613Z,10.53
2023-01-18T18:27:45.383Z,12.80
2023-01-18T18:30:13.918Z,12.00
2023-01-18T18:32:41.497Z,10.93
2023-01-18T18:35:26.732Z,10.63
2023-01-18T18:37:55.495Z,9.93
2023-01-18T18:40:23.112Z,10.60
2023-01-18T18:43:01.240Z,10.20
2023-01-18T18:45:30.576Z,10.57
2023-01-18T18:48:00.895Z,10.07
2023-01-18T18:50:30.223Z,10.20
2023-01-18T18:52:59.027Z,10.07
2023-01-18T18:55:27.178Z,14.37
2023-01-18T18:57:54.715Z,13.73
2023-01-18T19:00:22.763Z,12.43
2023-01-18T19:02:58.006Z,12.33
2023-01-18T19:05:25.485Z,12.60
2023-01-18T19:07:54.407Z,12.23
2023-01-18T19:10:24.089Z,10.93
2023-01-18T19:12:51.693Z,11.93
2023-01-18T19:15:19.413Z,12.90
2023-01-18T19:17:49.268Z,12.87
2023-01-18T19:20:19.614Z,12.17
2023-01-18T19:22:49.463Z,13.90
2023-01-18T19:25:19.000Z,13.30
2023-01-18T19:27:46.613Z,13.50
2023-01-18T19:30:19.007Z,12.57
2023-01-18T19:32:47.688Z,12.47
2023-01-18T19:35:15.369Z,11.57
2023-01-18T19:37:45.190Z,11.60
2023-01-18T19:40:13.965Z,11.73
2023-01-18T19:42:44.344Z,10.90
2023-01-18T19:45:19.631Z,12.07
2023-01-18T19:47:50.722Z,11.63
2023-01-18T19:50:18.315Z,12.20
2023-01-18T19:52:46.443Z,13.90
2023-01-18T19:55:14.054Z,13.97
2023-01-18T19:57:46.339Z,13.53
2023-01-18T20:00:16.666Z,13.43
2023-01-18T20:02:46.306Z,14.13
2023-01-18T20:05:14.004Z,14.27
2023-01-18T20:07:42.208Z,13.87
2023-01-18T20:10:10.314Z,12.10
2023-01-18T20:12:42.956Z,13.77
2023-01-18T20:15:15.493Z,14.23
2023-01-18T20:17:44.808Z,13.87
2023-01-18T20:20:18.240Z,11.23
2023-01-18T20:22:51.271Z,11.50
2023-01-18T20:25:18.953Z,10.87
2023-01-18T20:27:46.669Z,11.03
2023-01-18T20:30:15.895Z,11.87
2023-01-18T20:32:46.339Z,12.50
2023-01-18T20:35:14.037Z,13.00
2023-01-18T20:37:41.751Z,11.67
2023-01-18T20:40:12.527Z,12.00
2023-01-18T20:42:40.199Z,11.63
2023-01-18T20:45:08.790Z,11.27
2023-01-18T20:47:37.638Z,12.17
2023-01-18T20:50:06.092Z,12.47
2023-01-18T20:52:36.132Z,11.13
2023-01-18T20:55:03.629Z,12.03
2023-01-18T20:57:34.391Z,11.53
2023-01-18T21:00:05.334Z,13.83
2023-01-18T21:02:34.677Z,12.97
2023-01-18T21:05:03.637Z,13.10
2023-01-18T21:07:31.214Z,13.90
2023-01-18T21:10:01.207Z,13.97
2023-01-18T21:12:28.866Z,13.50
2023-01-18T21:15:29.219Z,13.30
2023-01-18T21:17:56.841Z,13.57
2023-01-18T21:20:30.230Z,13.20
2023-01-18T21:22:57.995Z,12.50
2023-01-18T21:25:31.413Z,14.40
2023-01-18T21:28:01.458Z,13.47
2023-01-18T21:30:29.405Z,13.83
2023-01-18T21:32:56.961Z,13.23
2023-01-18T21:35:29.870Z,14.07
2023-01-18T21:38:00.491Z,13.13
2023-01-18T21:40:28.230Z,13.13
2023-01-18T21:43:13.660Z,13.63
2023-01-18T21:45:56.623Z,12.23
2023-01-18T21:48:26.964Z,12.63
2023-01-18T21:51:14.064Z,13.00
2023-01-18T21:53:59.571Z,12.93
2023-01-18T21:56:30.376Z,13.20
2023-01-18T21:59:01.226Z,15.30
2023-01-18T22:01:34.208Z,12.47
2023-01-18T22:04:20.781Z,12.90
2023-01-18T22:06:55.550Z,12.97
2023-01-18T22:09:23.410Z,13.13
2023-01-18T22:11:51.080Z,13.00
2023-01-18T22:14:18.763Z,13.10
2023-01-18T22:16:46.446Z,12.00
2023-01-18T22:19:14.415Z,11.53
2023-01-18T22:21:42.926Z,11.57
2023-01-18T22:24:15.459Z,12.30
2023-01-18T22:26:47.826Z,10.93
2023-01-18T22:29:19.028Z,11.23
2023-01-18T22:31:48.737Z,11.63
2023-01-18T22:34:22.986Z,10.97
2023-01-18T22:36:51.927Z,11.33
2023-01-18T22:39:20.888Z,11.43
2023-01-18T22:41:50.359Z,12.63
2023-01-18T22:44:20.900Z,12.43
2023-01-18T22:46:48.363Z,11.83
2023-01-18T22:49:15.956Z,12.13
2023-01-18T22:51:43.445Z,12.10
2023-01-18T22:54:11.121Z,11.50
2023-01-18T22:56:40.382Z,12.43
2023-01-18T22:59:07.913Z,12.03
2023-01-18T23:01:36.203Z,14.27
2023-01-18T23:04:05.053Z,11.90
2023-01-18T23:06:42.573Z,12.17
2023-01-18T23:09:10.539Z,11.77
2023-01-18T23:11:38.346Z,11.97
2023-01-18T23:14:25.244Z,12.40
2023-01-18T23:17:10.497Z,11.93
2023-01-18T23:19:38.034Z,12.50
2023-01-18T23:22:07.382Z,12.40
2023-01-18T23:24:37.975Z,12.17
2023-01-18T23:27:06.068Z,11.90
2023-01-18T23:29:35.212Z,12.13
2023-01-18T23:32:04.341Z,11.93
2023-01-18T23:34:32.096Z,12.63
2023-01-18T23:37:01.073Z,11.57
2023-01-18T23:39:49.188Z,11.43
2023-01-18T23:42:34.376Z,12.37
2023-01-18T23:45:25.271Z,11.87
2023-01-18T23:48:13.323Z,12.13
2023-01-18T23:51:01.437Z,12.10
2023-01-18T23:53:46.506Z,11.33
2023-01-18T23:56:13.947Z,11.77
2023-01-18T23:58:41.429Z,11.00
